Time;durP1;ratioP1;P1;durP2;ratioP2;P2;SDS_P1;SDS_P2;PMS_P1;PMS_P2;Temp;Humidity;BMP_temperature;BMP_pressure;BME280_temperature;BME280_humidity;BME280_pressure;Samples;Min_cycle;Max_cycle;Signal;HPM_P1;HPM_P2
2022/06/20 00:02:21;;;;;;;0.60;0.60;;;20.90;99.90;;;;;;5080350;28;20509;-71
2022/06/20 00:04:50;;;;;;;0.40;0.40;;;20.90;99.90;;;;;;5068547;28;20945;-75
2022/06/20 00:07:17;;;;;;;0.38;0.38;;;20.90;99.90;;;;;;5071378;28;20435;-74
2022/06/20 00:09:45;;;;;;;0.40;0.40;;;20.80;99.90;;;;;;5070697;28;20431;-71
2022/06/20 00:12:17;;;;;;;0.40;0.40;;;20.80;99.90;;;;;;5070495;28;20429;-73
2022/06/20 00:14:46;;;;;;;0.40;0.40;;;20.70;99.90;;;;;;5065349;28;21188;-73
2022/06/20 00:17:14;;;;;;;0.63;0.50;;;20.70;99.90;;;;;;5055706;28;20471;-70
2022/06/20 00:19:42;;;;;;;0.70;0.60;;;20.70;99.90;;;;;;5063365;28;20519;-73
2022/06/20 00:22:10;;;;;;;0.50;0.50;;;20.70;99.90;;;;;;5066607;28;20519;-73
2022/06/20 00:24:38;;;;;;;0.47;0.47;;;20.60;99.90;;;;;;5067981;28;20427;-71
2022/06/20 00:27:07;;;;;;;0.68;0.50;;;20.60;99.90;;;;;;5059946;28;20496;-72
2022/06/20 00:29:38;;;;;;;0.40;0.40;;;20.50;99.90;;;;;;5069306;28;20428;-74
2022/06/20 00:32:07;;;;;;;0.40;0.40;;;20.40;99.90;;;;;;5069200;28;20519;-74
2022/06/20 00:34:35;;;;;;;0.30;0.30;;;20.40;99.90;;;;;;5055684;28;20423;-74
2022/06/20 00:37:02;;;;;;;0.60;0.50;;;20.30;99.90;;;;;;5070670;28;20991;-73
2022/06/20 00:39:29;;;;;;;0.38;0.38;;;20.40;99.90;;;;;;5067941;28;20454;-71
2022/06/20 00:41:57;;;;;;;0.40;0.40;;;20.30;99.90;;;;;;5070952;28;20988;-72
2022/06/20 00:44:38;;;;;;;0.40;0.40;;;20.20;99.90;;;;;;5070274;28;20882;-74
2022/06/20 00:47:13;;;;;;;0.38;0.38;;;20.20;99.90;;;;;;5070963;28;20850;-75
2022/06/20 00:49:50;;;;;;;0.40;0.40;;;20.20;99.90;;;;;;5070901;28;20424;-74
2022/06/20 00:52:25;;;;;;;0.70;0.40;;;20.20;99.90;;;;;;5070539;28;20484;-74
2022/06/20 00:55:17;;;;;;;0.50;0.50;;;20.10;99.90;;;;;;5069684;28;20494;-74
2022/06/20 00:57:49;;;;;;;0.50;0.50;;;20.10;99.90;;;;;;5051656;28;20812;-73
2022/06/20 01:00:27;;;;;;;0.40;0.40;;;20.10;99.90;;;;;;5051146;28;20516;-73
2022/06/20 01:03:13;;;;;;;0.30;0.30;;;20.10;99.90;;;;;;5051322;28;20469;-74
2022/06/20 01:06:02;;;;;;;0.32;0.32;;;20.00;99.90;;;;;;5068942;28;20427;-69
2022/06/20 01:08:38;;;;;;;0.40;0.40;;;20.00;99.90;;;;;;5052963;28;20469;-70
2022/06/20 01:11:13;;;;;;;0.50;0.50;;;20.10;99.90;;;;;;5070630;28;20441;-72
2022/06/20 01:13:40;;;;;;;0.30;0.30;;;20.10;99.90;;;;;;5068095;28;21085;-72
2022/06/20 01:16:21;;;;;;;0.43;0.43;;;20.20;99.90;;;;;;5052659;28;20436;-74
2022/06/20 01:18:49;;;;;;;0.20;0.20;;;20.20;99.90;;;;;;5069526;28;20431;-72
2022/06/20 01:21:19;;;;;;;0.40;0.40;;;20.20;99.90;;;;;;5069657;28;20428;-72
2022/06/20 01:23:49;;;;;;;1.00;0.50;;;20.20;99.90;;;;;;5070352;28;20481;-73
2022/06/20 01:26:46;;;;;;;0.35;0.35;;;20.20;99.90;;;;;;5066339;28;20469;-73
2022/06/20 01:29:13;;;;;;;0.52;0.52;;;20.20;99.90;;;;;;5069726;28;20481;-73
2022/06/20 01:31:48;;;;;;;0.43;0.43;;;20.20;99.90;;;;;;5070835;28;20427;-73
2022/06/20 01:34:17;;;;;;;0.60;0.40;;;20.20;99.90;;;;;;5068608;28;20431;-69
2022/06/20 01:39:37;;;;;;;0.73;0.57;;;20.20;99.90;;;;;;5069247;28;20926;-73
2022/06/20 01:42:21;;;;;;;0.30;0.30;;;20.20;99.90;;;;;;5066488;28;20447;-72
2022/06/20 01:44:58;;;;;;;0.73;0.52;;;20.10;99.90;;;;;;5062724;28;20520;-70
2022/06/20 01:47:25;;;;;;;0.52;0.52;;;20.00;99.90;;;;;;5067623;28;20502;-72
2022/06/20 01:50:06;;;;;;;0.50;0.50;;;19.90;99.90;;;;;;5069346;28;21130;-72
2022/06/20 01:52:43;;;;;;;0.60;0.60;;;20.00;99.90;;;;;;5066638;28;20511;-72
2022/06/20 01:55:16;;;;;;;0.50;0.50;;;19.90;99.90;;;;;;5068705;28;20518;-70
2022/06/20 01:57:45;;;;;;;0.32;0.32;;;19.90;99.90;;;;;;5059951;28;20424;-70
2022/06/20 02:00:22;;;;;;;0.67;0.67;;;19.80;99.90;;;;;;5063254;28;20464;-71
2022/06/20 02:02:53;;;;;;;0.40;0.40;;;19.80;99.90;;;;;;5069459;28;20507;-70
2022/06/20 02:05:24;;;;;;;0.60;0.60;;;19.70;99.90;;;;;;5072667;28;20437;-71
2022/06/20 02:07:52;;;;;;;0.40;0.40;;;19.60;99.90;;;;;;5067278;28;20460;-71
2022/06/20 02:10:43;;;;;;;0.40;0.40;;;19.40;99.90;;;;;;5071338;28;20516;-68
2022/06/20 02:13:13;;;;;;;0.60;0.60;;;19.10;99.90;;;;;;5061633;28;20427;-75
2022/06/20 02:15:44;;;;;;;0.47;0.47;;;;;;;;;;5070377;28;20485;-69
2022/06/20 02:18:12;;;;;;;0.50;0.50;;;18.70;99.90;;;;;;5071678;28;20906;-71
2022/06/20 02:20:46;;;;;;;1.10;0.35;;;18.60;99.90;;;;;;5069804;28;20510;-72
2022/06/20 02:23:37;;;;;;;0.55;0.55;;;18.50;99.90;;;;;;5069992;28;20465;-73
2022/06/20 02:26:06;;;;;;;0.70;0.38;;;18.50;99.90;;;;;;5071491;28;20469;-69
2022/06/20 02:28:42;;;;;;;0.40;0.40;;;18.50;99.90;;;;;;5068195;28;20423;-70
2022/06/20 02:31:12;;;;;;;0.40;0.40;;;18.50;99.90;;;;;;5072534;28;20463;-72
2022/06/20 02:33:39;;;;;;;0.40;0.40;;;18.50;99.90;;;;;;5071711;28;20435;-73
2022/06/20 02:36:07;;;;;;;2.53;0.43;;;18.50;99.90;;;;;;5071437;28;20864;-69
2022/06/20 02:38:36;;;;;;;0.60;0.60;;;18.50;99.90;;;;;;5069951;28;20434;-77
2022/06/20 02:41:03;;;;;;;0.50;0.50;;;18.50;99.90;;;;;;5072317;28;20428;-78
2022/06/20 02:43:59;;;;;;;0.50;0.50;;;18.50;99.90;;;;;;5073071;28;20463;-76
2022/06/20 02:46:28;;;;;;;0.90;0.60;;;18.50;99.90;;;;;;5049549;28;20472;-69
2022/06/20 02:49:03;;;;;;;0.50;0.50;;;18.50;99.90;;;;;;5042303;28;20433;-68
2022/06/20 02:51:35;;;;;;;0.60;0.60;;;18.60;99.90;;;;;;5047453;28;20472;-71
2022/06/20 02:54:05;;;;;;;0.50;0.50;;;18.60;99.90;;;;;;5052077;28;20512;-68
2022/06/20 02:56:37;;;;;;;0.52;0.52;;;18.50;99.90;;;;;;5032683;28;20548;-69
2022/06/20 02:59:13;;;;;;;0.70;0.70;;;18.50;99.90;;;;;;5048904;28;20519;-77
2022/06/20 03:01:52;;;;;;;0.60;0.60;;;18.50;99.90;;;;;;5047971;28;20508;-75
2022/06/20 03:04:21;;;;;;;0.52;0.52;;;18.40;99.90;;;;;;5049978;28;20477;-74
2022/06/20 03:07:00;;;;;;;0.60;0.60;;;18.30;99.90;;;;;;5061511;28;21148;-76
2022/06/20 03:09:34;;;;;;;1.10;0.60;;;18.20;99.90;;;;;;5069585;28;20428;-75
2022/06/20 03:12:06;;;;;;;0.52;0.52;;;18.20;99.90;;;;;;5061417;28;20430;-74
2022/06/20 03:14:45;;;;;;;0.50;0.50;;;18.20;99.90;;;;;;5047365;28;20437;-74
2022/06/20 03:17:15;;;;;;;0.40;0.40;;;18.10;99.90;;;;;;5043020;28;20425;-69
2022/06/20 03:19:47;;;;;;;0.70;0.70;;;18.10;99.90;;;;;;5048950;28;20935;-75
2022/06/20 03:22:23;;;;;;;0.60;0.60;;;18.10;99.90;;;;;;5050745;28;20515;-75
2022/06/20 03:24:51;;;;;;;0.50;0.50;;;18.20;99.90;;;;;;5066047;28;20438;-75
2022/06/20 03:27:27;;;;;;;0.40;0.40;;;18.20;99.90;;;;;;5066452;28;20518;-76
2022/06/20 03:30:00;;;;;;;0.30;0.30;;;18.20;99.90;;;;;;5053620;28;20433;-74
2022/06/20 03:32:27;;;;;;;0.40;0.40;;;18.20;99.90;;;;;;5063520;28;20429;-75
2022/06/20 03:34:54;;;;;;;0.50;0.50;;;18.10;99.90;;;;;;5056922;28;20506;-75
2022/06/20 03:37:21;;;;;;;0.50;0.50;;;18.10;99.90;;;;;;5067629;28;20534;-73
2022/06/20 03:39:50;;;;;;;0.45;0.45;;;18.10;99.90;;;;;;5070566;28;20779;-74
2022/06/20 03:42:17;;;;;;;0.40;0.40;;;18.10;99.90;;;;;;5071271;28;20526;-74
2022/06/20 03:44:54;;;;;;;0.55;0.55;;;18.10;99.90;;;;;;5070139;28;20518;-74
2022/06/20 03:47:38;;;;;;;0.52;0.52;;;18.20;99.90;;;;;;5070838;28;20543;-70
2022/06/20 03:50:28;;;;;;;0.40;0.40;;;18.20;99.90;;;;;;5066310;28;20548;-74
2022/06/20 03:53:15;;;;;;;0.40;0.40;;;18.20;99.90;;;;;;5070688;28;20431;-75
2022/06/20 03:56:11;;;;;;;0.50;0.50;;;18.20;99.90;;;;;;5063848;28;20915;-69
2022/06/20 03:58:43;;;;;;;0.47;0.47;;;18.30;99.90;;;;;;5050724;28;20472;-74
2022/06/20 04:01:19;;;;;;;0.55;0.50;;;18.30;99.90;;;;;;5060961;28;20455;-75
2022/06/20 04:03:53;;;;;;;0.40;0.40;;;18.40;99.90;;;;;;5068454;28;20455;-71
2022/06/20 04:06:25;;;;;;;0.38;0.38;;;18.40;99.90;;;;;;5070791;28;20834;-71
2022/06/20 04:12:35;;;;;;;0.35;0.35;;;18.50;99.90;;;;;;5069673;28;20485;-71
2022/06/20 04:15:39;;;;;;;0.50;0.50;;;18.60;99.90;;;;;;5066166;28;20494;-73
2022/06/20 04:18:43;;;;;;;1.23;0.38;;;18.60;99.90;;;;;;5023302;28;20530;-71
2022/06/20 04:21:19;;;;;;;0.35;0.35;;;18.70;99.90;;;;;;5025831;28;20435;-69
2022/06/20 04:23:49;;;;;;;0.20;0.20;;;18.60;99.90;;;;;;5014779;28;20531;-74
2022/06/20 04:26:25;;;;;;;0.38;0.38;;;18.70;99.90;;;;;;5028299;28;20431;-74
2022/06/20 04:29:00;;;;;;;0.30;0.30;;;18.70;99.90;;;;;;5034205;28;20461;-74
2022/06/20 04:31:45;;;;;;;0.32;0.32;;;18.80;99.90;;;;;;5044661;28;20422;-77
2022/06/20 04:34:27;;;;;;;0.40;0.40;;;18.80;99.90;;;;;;5017781;28;20435;-74
2022/06/20 04:36:59;;;;;;;0.43;0.43;;;19.00;99.90;;;;;;5025029;28;20426;-75
2022/06/20 04:39:45;;;;;;;0.30;0.30;;;19.10;99.90;;;;;;5024519;28;20488;-75
2022/06/20 04:42:21;;;;;;;0.30;0.30;;;19.10;99.90;;;;;;5029114;28;20523;-74
2022/06/20 04:44:54;;;;;;;0.50;0.50;;;19.20;99.90;;;;;;5027706;28;20458;-76
2022/06/20 04:47:58;;;;;;;0.93;0.35;;;19.30;99.90;;;;;;5028545;28;20431;-75
2022/06/20 04:50:28;;;;;;;0.30;0.30;;;19.40;99.90;;;;;;5024733;28;20430;-71
2022/06/20 04:53:05;;;;;;;0.40;0.40;;;19.50;99.90;;;;;;5031713;28;20961;-74
2022/06/20 04:55:34;;;;;;;0.40;0.30;;;19.40;99.90;;;;;;5071795;28;20496;-75
2022/06/20 04:58:04;;;;;;;0.40;0.40;;;19.40;99.90;;;;;;5073743;28;20541;-76
2022/06/20 05:00:43;;;;;;;0.50;0.40;;;19.30;99.90;;;;;;5072511;28;20514;-75
2022/06/20 05:03:16;;;;;;;0.50;0.50;;;19.40;99.90;;;;;;5075913;28;20495;-75
2022/06/20 05:05:49;;;;;;;0.40;0.40;;;19.40;99.90;;;;;;5075201;28;20432;-73
2022/06/20 05:08:31;;;;;;;0.70;0.40;;;19.40;99.90;;;;;;5073418;28;20511;-77
2022/06/20 05:11:25;;;;;;;0.43;0.43;;;19.40;99.90;;;;;;5078151;28;20458;-76
2022/06/20 05:14:05;;;;;;;0.45;0.45;;;19.50;99.90;;;;;;5068404;28;20493;-76
2022/06/20 05:16:38;;;;;;;0.40;0.40;;;19.50;99.90;;;;;;5057587;28;20429;-74
2022/06/20 05:19:17;;;;;;;0.30;0.30;;;19.60;99.90;;;;;;5071301;28;20428;-74
2022/06/20 05:22:05;;;;;;;0.50;0.50;;;19.70;99.90;;;;;;5056656;28;20465;-74
2022/06/20 05:24:35;;;;;;;0.53;0.53;;;19.60;99.90;;;;;;5069315;28;20521;-74
2022/06/20 05:27:11;;;;;;;0.40;0.40;;;19.70;99.90;;;;;;5066743;28;20518;-74
2022/06/20 05:29:41;;;;;;;0.50;0.50;;;19.60;99.90;;;;;;5061040;28;20531;-71
2022/06/20 05:32:14;;;;;;;0.30;0.30;;;19.50;99.90;;;;;;5063678;28;20431;-73
2022/06/20 05:34:40;;;;;;;0.28;0.28;;;19.40;99.90;;;;;;5073864;28;20435;-76
2022/06/20 05:37:25;;;;;;;0.40;0.40;;;19.30;99.90;;;;;;5051959;28;20439;-73
2022/06/20 05:39:58;;;;;;;0.40;0.40;;;19.20;99.90;;;;;;5065416;28;20510;-73
2022/06/20 05:42:25;;;;;;;0.40;0.40;;;19.10;99.90;;;;;;5071680;28;20492;-74
2022/06/20 05:44:52;;;;;;;0.33;0.33;;;19.00;99.90;;;;;;5070605;28;20437;-75
2022/06/20 05:47:29;;;;;;;0.40;0.40;;;19.10;99.90;;;;;;5069436;28;20488;-74
2022/06/20 05:50:42;;;;;;;0.20;0.20;;;19.10;99.90;;;;;;5064191;28;20450;-75
2022/06/20 05:53:24;;;;;;;0.43;0.43;;;19.00;99.90;;;;;;5061572;28;20439;-76
2022/06/20 05:55:57;;;;;;;0.40;0.40;;;18.90;99.90;;;;;;5065894;28;20434;-73
2022/06/20 05:58:29;;;;;;;0.40;0.40;;;18.90;99.90;;;;;;5069142;28;21451;-75
2022/06/20 06:01:03;;;;;;;0.55;0.35;;;19.10;99.90;;;;;;5079187;28;20517;-76
2022/06/20 06:03:40;;;;;;;0.32;0.32;;;19.20;99.90;;;;;;5083039;28;20425;-75
2022/06/20 06:06:19;;;;;;;0.45;0.45;;;19.30;99.90;;;;;;5070300;28;20536;-74
2022/06/20 06:08:55;;;;;;;0.28;0.28;;;19.40;99.90;;;;;;5069994;28;20514;-73
2022/06/20 06:11:30;;;;;;;0.40;0.40;;;19.40;99.90;;;;;;5066035;28;21138;-74
2022/06/20 06:14:22;;;;;;;0.40;0.40;;;19.40;99.90;;;;;;5077343;28;20514;-73
2022/06/20 06:17:21;;;;;;;0.30;0.30;;;19.40;99.90;;;;;;5062711;28;20594;-74
2022/06/20 06:20:17;;;;;;;0.43;0.43;;;19.40;99.90;;;;;;5061775;28;20908;-73
2022/06/20 06:22:47;;;;;;;0.30;0.30;;;19.40;99.90;;;;;;5064260;28;20916;-73
2022/06/20 06:25:19;;;;;;;0.40;0.40;;;19.30;99.90;;;;;;5067039;28;20953;-74
2022/06/20 06:27:48;;;;;;;0.20;0.20;;;19.30;99.90;;;;;;5069738;28;20436;-73
2022/06/20 06:30:22;;;;;;;0.40;0.40;;;19.20;99.90;;;;;;5070057;28;20463;-75
2022/06/20 06:32:58;;;;;;;0.50;0.40;;;19.10;99.90;;;;;;5065827;28;20440;-75
2022/06/20 06:35:41;;;;;;;0.37;0.37;;;18.80;99.90;;;;;;5077183;28;20423;-73
2022/06/20 06:38:28;;;;;;;0.50;0.50;;;18.30;99.90;;;;;;5072419;28;20433;-71
2022/06/20 06:41:03;;;;;;;0.40;0.40;;;17.70;99.90;;;;;;5065917;28;20420;-69
2022/06/20 06:43:44;;;;;;;0.50;0.50;;;17.40;99.90;;;;;;5074452;28;20985;-69
2022/06/20 06:46:15;;;;;;;0.50;0.50;;;17.20;99.90;;;;;;5070860;28;20427;-70
2022/06/20 06:48:52;;;;;;;0.30;0.30;;;17.20;99.90;;;;;;5069258;28;21187;-71
2022/06/20 06:51:59;;;;;;;0.75;0.30;;;17.20;99.90;;;;;;5081768;28;20836;-70
2022/06/20 06:54:40;;;;;;;0.22;0.22;;;17.20;99.90;;;;;;5056386;28;20431;-70
2022/06/20 06:57:20;;;;;;;0.40;0.40;;;17.10;99.90;;;;;;5072654;28;20434;-72
2022/06/20 07:00:02;;;;;;;0.40;0.30;;;17.20;99.90;;;;;;5072315;28;20425;-71
2022/06/20 07:02:33;;;;;;;0.38;0.38;;;17.10;99.90;;;;;;5073819;28;20430;-71
2022/06/20 07:05:18;;;;;;;0.40;0.40;;;17.10;99.90;;;;;;5073449;28;20506;-70
2022/06/20 07:07:53;;;;;;;0.52;0.52;;;17.20;99.90;;;;;;5070277;28;20436;-69
2022/06/20 07:10:36;;;;;;;0.40;0.40;;;17.40;99.90;;;;;;5066588;28;21129;-71
2022/06/20 07:13:13;;;;;;;0.43;0.43;;;17.40;99.90;;;;;;5071168;28;20443;-71
2022/06/20 07:15:42;;;;;;;0.37;0.37;;;17.40;99.90;;;;;;5071792;28;20438;-70
2022/06/20 07:18:39;;;;;;;0.30;0.30;;;17.50;99.90;;;;;;5068224;28;20426;-70
2022/06/20 07:21:08;;;;;;;0.40;0.40;;;17.60;99.90;;;;;;5066941;28;20427;-71
2022/06/20 07:23:35;;;;;;;0.60;0.60;;;17.70;99.90;;;;;;5075260;28;20426;-70
2022/06/20 07:26:02;;;;;;;0.40;0.40;;;17.70;99.90;;;;;;5071787;28;21178;-71
2022/06/20 07:28:40;;;;;;;0.40;0.40;;;17.90;99.90;;;;;;5086281;28;20487;-71
2022/06/20 07:31:26;;;;;;;0.52;0.52;;;18.00;99.90;;;;;;5065806;28;20428;-70
2022/06/20 07:34:06;;;;;;;0.50;0.50;;;18.20;99.90;;;;;;5066552;28;20443;-69
2022/06/20 07:37:11;;;;;;;0.60;0.60;;;18.40;99.90;;;;;;5065204;28;20474;-70
2022/06/20 07:39:40;;;;;;;0.35;0.35;;;18.40;99.90;;;;;;5019675;28;20941;-69
2022/06/20 07:42:12;;;;;;;0.30;0.30;;;18.40;99.90;;;;;;5024767;28;20514;-69
2022/06/20 07:44:41;;;;;;;0.47;0.47;;;18.60;99.90;;;;;;5025309;28;20435;-69
2022/06/20 07:47:18;;;;;;;0.40;0.40;;;18.80;99.90;;;;;;5034885;28;20578;-69
2022/06/20 07:49:51;;;;;;;0.95;0.60;;;18.90;99.90;;;;;;5036593;28;20437;-70
2022/06/20 07:52:47;;;;;;;1.15;0.65;;;18.80;99.90;;;;;;5020182;28;20420;-70
2022/06/20 07:55:19;;;;;;;0.40;0.40;;;18.80;99.90;;;;;;5021386;28;20507;-70
2022/06/20 07:57:57;;;;;;;0.60;0.60;;;18.80;99.90;;;;;;5015847;28;20428;-70
2022/06/20 08:00:28;;;;;;;0.40;0.40;;;19.00;99.90;;;;;;5034194;28;20440;-71
2022/06/20 08:03:23;;;;;;;0.50;0.50;;;19.10;99.90;;;;;;5025320;28;20424;-70
2022/06/20 08:05:58;;;;;;;0.40;0.40;;;19.20;99.90;;;;;;5017204;28;20512;-68
2022/06/20 08:08:28;;;;;;;0.30;0.30;;;19.50;99.90;;;;;;5002807;28;21666;-70
2022/06/20 08:11:41;;;;;;;0.57;0.50;;;19.70;99.90;;;;;;5023144;28;20496;-70
2022/06/20 08:14:26;;;;;;;0.30;0.30;;;19.90;99.90;;;;;;5027386;28;20896;-69
2022/06/20 08:16:57;;;;;;;0.40;0.40;;;20.40;99.90;;;;;;5056836;28;20550;-69
2022/06/20 08:19:25;;;;;;;0.60;0.60;;;20.60;99.90;;;;;;5061863;28;20442;-69
2022/06/20 08:22:10;;;;;;;0.60;0.60;;;20.70;99.90;;;;;;5067780;28;20493;-70
2022/06/20 08:24:59;;;;;;;0.53;0.50;;;21.00;99.90;;;;;;5075577;28;20424;-69
2022/06/20 08:27:46;;;;;;;0.40;0.40;;;21.20;99.90;;;;;;5064874;28;20843;-68
2022/06/20 08:30:16;;;;;;;0.40;0.40;;;21.60;99.90;;;;;;5066201;28;20457;-68
2022/06/20 08:33:01;;;;;;;2.10;0.50;;;21.80;99.90;;;;;;5064000;28;20489;-68
2022/06/20 08:35:40;;;;;;;0.30;0.30;;;21.70;99.90;;;;;;5061877;28;20527;-71
2022/06/20 08:38:34;;;;;;;0.60;0.40;;;21.40;99.90;;;;;;5064361;28;20431;-69
2022/06/20 08:41:30;;;;;;;1.30;0.50;;;21.10;99.90;;;;;;5069651;28;20557;-69
2022/06/20 08:44:27;;;;;;;0.50;0.50;;;20.90;99.90;;;;;;5042113;28;21054;-70
2022/06/20 08:47:12;;;;;;;0.30;0.30;;;20.90;99.90;;;;;;5065362;28;20448;-71
2022/06/20 08:49:55;;;;;;;0.20;0.20;;;20.60;99.90;;;;;;5063791;28;20430;-72
2022/06/20 08:53:11;;;;;;;0.32;0.32;;;20.00;99.90;;;;;;5072659;28;20427;-71
2022/06/20 08:56:07;;;;;;;0.40;0.40;;;19.40;99.90;;;;;;5049808;28;20956;-73
2022/06/20 08:58:56;;;;;;;0.20;0.20;;;19.30;99.90;;;;;;5072648;28;20434;-69
2022/06/20 09:01:44;;;;;;;0.20;0.20;;;18.90;99.90;;;;;;5072082;28;20427;-68
2022/06/20 09:04:45;;;;;;;0.20;0.20;;;18.60;99.90;;;;;;5065155;28;20431;-72
2022/06/20 09:07:30;;;;;;;0.20;0.20;;;18.40;99.90;;;;;;5071927;28;20426;-70
2022/06/20 09:10:34;;;;;;;0.25;0.25;;;18.40;99.90;;;;;;5056031;28;20436;-71
2022/06/20 09:13:16;;;;;;;0.30;0.30;;;18.50;99.90;;;;;;5063209;28;20427;-71
2022/06/20 09:16:03;;;;;;;0.30;0.30;;;18.70;99.90;;;;;;5064648;28;20546;-69
2022/06/20 09:18:47;;;;;;;0.20;0.20;;;18.80;99.90;;;;;;5069457;28;20938;-73
2022/06/20 09:21:29;;;;;;;0.30;0.30;;;19.00;99.90;;;;;;5068769;28;20428;-69
2022/06/20 09:24:05;;;;;;;0.30;0.30;;;19.20;99.90;;;;;;5073190;28;20429;-69
2022/06/20 09:26:57;;;;;;;0.30;0.30;;;19.50;99.90;;;;;;5076679;28;20425;-71
2022/06/20 09:29:29;;;;;;;0.60;0.30;;;20.00;99.90;;;;;;5077503;28;20430;-71
2022/06/20 09:32:08;;;;;;;0.30;0.30;;;20.50;99.90;;;;;;5078048;28;20425;-72
2022/06/20 09:34:41;;;;;;;0.30;0.30;;;21.00;99.90;;;;;;5072711;28;20455;-73
2022/06/20 09:37:38;;;;;;;0.32;0.32;;;21.00;99.90;;;;;;5067713;28;20490;-74
2022/06/20 09:40:21;;;;;;;0.40;0.40;;;21.10;99.90;;;;;;5073118;28;20848;-72
2022/06/20 09:43:02;;;;;;;0.30;0.30;;;21.10;99.90;;;;;;5069756;28;20565;-75
2022/06/20 09:45:59;;;;;;;2.60;0.30;;;20.60;99.90;;;;;;5064221;28;20507;-72
2022/06/20 09:48:48;;;;;;;0.30;0.30;;;20.20;99.90;;;;;;5061134;28;20517;-69
2022/06/20 09:51:31;;;;;;;0.30;0.30;;;20.10;99.90;;;;;;5072212;28;20510;-76
2022/06/20 09:54:26;;;;;;;0.30;0.30;;;19.70;99.90;;;;;;5070811;28;20431;-70
2022/06/20 09:57:27;;;;;;;0.28;0.28;;;19.40;99.90;;;;;;5064285;28;20519;-70
2022/06/20 10:00:22;;;;;;;0.30;0.30;;;19.30;99.90;;;;;;5062845;28;20943;-71
2022/06/20 10:03:29;;;;;;;0.30;0.30;;;19.40;99.90;;;;;;5070150;28;20461;-70
2022/06/20 10:06:25;;;;;;;0.20;0.20;;;19.30;99.90;;;;;;5071868;28;20426;-70
2022/06/20 10:09:15;;;;;;;0.20;0.20;;;19.20;99.90;;;;;;5056131;28;20973;-72
2022/06/20 10:11:51;;;;;;;0.40;0.40;;;19.00;99.90;;;;;;5074191;28;20424;-71
2022/06/20 10:14:41;;;;;;;0.20;0.20;;;18.90;99.90;;;;;;5080917;28;20452;-75
2022/06/20 10:17:18;;;;;;;0.30;0.30;;;18.80;99.90;;;;;;5068130;28;20430;-71
2022/06/20 10:20:21;;;;;;;0.38;0.38;;;18.90;99.90;;;;;;5074691;28;20784;-75
2022/06/20 10:23:10;;;;;;;0.20;0.20;;;19.30;99.90;;;;;;5071515;28;20433;-68
2022/06/20 10:26:04;;;;;;;0.40;0.40;;;19.40;99.90;;;;;;5071518;28;20430;-74
2022/06/20 10:28:53;;;;;;;0.38;0.38;;;19.30;99.90;;;;;;5065053;28;20817;-73
2022/06/20 10:31:29;;;;;;;0.28;0.28;;;19.20;99.90;;;;;;5064298;28;20980;-71
2022/06/20 10:34:12;;;;;;;0.47;0.47;;;19.10;99.90;;;;;;5051699;28;20805;-69
2022/06/20 10:36:53;;;;;;;0.30;0.30;;;19.10;99.90;;;;;;5066464;28;20530;-76
2022/06/20 10:39:20;;;;;;;0.20;0.20;;;19.00;99.90;;;;;;5067990;28;20428;-72
2022/06/20 10:42:12;;;;;;;0.20;0.20;;;19.00;99.90;;;;;;5070883;28;20423;-72
2022/06/20 10:45:03;;;;;;;0.40;0.40;;;18.90;99.90;;;;;;5066977;28;20970;-76
2022/06/20 10:47:53;;;;;;;0.30;0.30;;;18.80;99.90;;;;;;5081141;28;21104;-71
2022/06/20 10:50:40;;;;;;;0.40;0.40;;;18.90;99.90;;;;;;5071900;28;20506;-72
2022/06/20 10:53:37;;;;;;;0.30;0.30;;;19.30;99.90;;;;;;5069919;28;20440;-75
2022/06/20 10:56:45;;;;;;;0.30;0.30;;;19.70;99.90;;;;;;5070156;28;20433;-73
2022/06/20 10:59:34;;;;;;;0.22;0.22;;;20.10;99.90;;;;;;5079286;28;20426;-71
2022/06/20 11:02:44;;;;;;;0.20;0.20;;;20.00;99.90;;;;;;5068850;28;20510;-73
2022/06/20 11:05:19;;;;;;;0.20;0.20;;;20.10;99.90;;;;;;5078760;28;20434;-72
2022/06/20 11:07:58;;;;;;;0.27;0.27;;;20.10;99.90;;;;;;5066700;28;20517;-70
2022/06/20 11:10:50;;;;;;;0.30;0.30;;;19.50;99.90;;;;;;5071133;28;20435;-72
2022/06/20 11:13:37;;;;;;;0.30;0.30;;;19.30;99.90;;;;;;5084126;28;20431;-70
2022/06/20 11:16:15;;;;;;;0.30;0.30;;;18.90;99.90;;;;;;5075622;28;20467;-70
2022/06/20 11:18:49;;;;;;;0.20;0.20;;;18.60;99.90;;;;;;5068974;28;20438;-76
2022/06/20 11:21:21;;;;;;;0.20;0.20;;;18.60;99.90;;;;;;5084755;28;20421;-72
2022/06/20 11:24:18;;;;;;;0.20;0.20;;;18.40;99.90;;;;;;5075536;28;20461;-74
2022/06/20 11:27:17;;;;;;;0.40;0.20;;;17.90;99.90;;;;;;5065554;28;20522;-71
2022/06/20 11:29:54;;;;;;;0.20;0.20;;;17.80;99.90;;;;;;5060598;28;20422;-72
2022/06/20 11:32:33;;;;;;;0.22;0.22;;;17.40;99.90;;;;;;5075005;28;20519;-72
2022/06/20 11:35:16;;;;;;;0.30;0.30;;;17.20;99.90;;;;;;5064126;28;20432;-74
2022/06/20 11:38:06;;;;;;;0.30;0.30;;;17.20;99.90;;;;;;5074632;28;20559;-73
2022/06/20 11:40:56;;;;;;;0.30;0.30;;;17.30;99.90;;;;;;5070688;28;20427;-76
2022/06/20 11:43:53;;;;;;;0.20;0.20;;;17.40;99.90;;;;;;5078629;28;20427;-73
2022/06/20 11:46:48;;;;;;;0.20;0.20;;;17.40;99.90;;;;;;5067229;28;20454;-70
2022/06/20 11:49:34;;;;;;;0.25;0.25;;;17.20;99.90;;;;;;5065351;28;20437;-75
2022/06/20 11:52:44;;;;;;;0.20;0.20;;;17.20;99.90;;;;;;5070389;28;20459;-66
2022/06/20 11:55:28;;;;;;;0.30;0.30;;;17.50;99.90;;;;;;5053253;28;20431;-73
2022/06/20 11:58:10;;;;;;;0.20;0.20;;;17.80;99.90;;;;;;5043157;28;20543;-66
2022/06/20 12:00:42;;;;;;;0.30;0.30;;;17.90;99.90;;;;;;5023625;28;20598;-68
2022/06/20 12:03:25;;;;;;;0.30;0.30;;;18.20;99.90;;;;;;5047977;28;20461;-66
2022/06/20 12:06:05;;;;;;;0.20;0.20;;;18.40;99.90;;;;;;5049719;28;20456;-65
2022/06/20 12:08:45;;;;;;;0.30;0.30;;;18.40;99.90;;;;;;5048520;28;20931;-66
2022/06/20 12:11:12;;;;;;;0.20;0.20;;;18.70;99.90;;;;;;5049541;28;20465;-67
2022/06/20 12:14:09;;;;;;;0.20;0.20;;;18.70;99.90;;;;;;5043608;28;20539;-66
2022/06/20 12:17:28;;;;;;;0.20;0.20;;;19.00;99.90;;;;;;5034686;28;20427;-69
2022/06/20 12:23:41;;;;;;;0.30;0.30;;;19.10;99.90;;;;;;5012734;28;20487;-65
2022/06/20 12:26:17;;;;;;;0.20;0.20;;;19.50;99.90;;;;;;5040566;28;20645;-65
2022/06/20 12:28:49;;;;;;;0.30;0.30;;;20.20;99.90;;;;;;5042865;28;20425;-64
2022/06/20 12:31:35;;;;;;;0.20;0.20;;;20.70;99.90;;;;;;5060783;28;20502;-65
2022/06/20 12:34:39;;;;;;;0.20;0.20;;;21.20;99.90;;;;;;5072306;28;20443;-68
2022/06/20 12:37:35;;;;;;;0.20;0.20;;;21.00;99.90;;;;;;5061557;28;21037;-68
2022/06/20 12:40:11;;;;;;;0.20;0.20;;;20.60;99.90;;;;;;5055268;28;21332;-67
2022/06/20 12:42:38;;;;;;;0.30;0.30;;;20.10;99.90;;;;;;5067897;28;20527;-66
2022/06/20 12:45:29;;;;;;;0.20;0.20;;;19.70;99.90;;;;;;5059315;28;20435;-70
2022/06/20 12:47:56;;;;;;;0.30;0.30;;;19.80;99.90;;;;;;5058946;28;20454;-68
2022/06/20 12:50:29;;;;;;;0.30;0.30;;;19.90;99.90;;;;;;5062905;28;20858;-66
2022/06/20 12:53:36;;;;;;;0.25;0.25;;;19.90;99.90;;;;;;5055128;28;20421;-66
2022/06/20 12:56:19;;;;;;;0.20;0.20;;;19.90;99.90;;;;;;5059773;28;20428;-64
2022/06/20 12:59:20;;;;;;;0.22;0.22;;;19.50;99.90;;;;;;5071657;28;20462;-65
2022/06/20 13:02:06;;;;;;;0.30;0.30;;;19.30;99.90;;;;;;5062629;28;20530;-63
2022/06/20 13:05:10;;;;;;;0.20;0.20;;;18.80;99.90;;;;;;5063309;28;20433;-65
2022/06/20 13:07:58;;;;;;;0.30;0.30;;;18.20;99.90;;;;;;5055433;28;20536;-65
2022/06/20 13:10:54;;;;;;;0.20;0.20;;;18.00;99.90;;;;;;5071849;28;20527;-64
2022/06/20 13:13:39;;;;;;;0.20;0.20;;;17.80;99.90;;;;;;5054939;28;21221;-66
2022/06/20 13:16:27;;;;;;;0.10;0.10;;;17.80;99.90;;;;;;5062771;28;21332;-65
2022/06/20 13:19:13;;;;;;;0.20;0.20;;;18.00;99.90;;;;;;5059303;28;20460;-66
2022/06/20 13:22:09;;;;;;;0.30;0.30;;;18.10;99.90;;;;;;5070098;28;20490;-65
2022/06/20 13:25:01;;;;;;;0.20;0.20;;;18.40;99.90;;;;;;5063349;28;20431;-64
2022/06/20 13:27:42;;;;;;;0.20;0.20;;;18.90;99.90;;;;;;5066614;28;20427;-63
2022/06/20 13:30:30;;;;;;;0.20;0.20;;;19.40;99.90;;;;;;5066831;28;20443;-64
2022/06/20 13:33:12;;;;;;;0.30;0.30;;;20.50;99.90;;;;;;5070974;28;20439;-65
2022/06/20 13:35:45;;;;;;;0.20;0.20;;;21.20;99.90;;;;;;5058693;28;20544;-65
2022/06/20 13:38:41;;;;;;;0.20;0.20;;;21.10;99.90;;;;;;5053419;28;20434;-65
2022/06/20 13:41:41;;;;;;;1.60;0.20;;;21.00;99.90;;;;;;5056824;28;20484;-63
2022/06/20 13:44:37;;;;;;;0.20;0.20;;;20.80;99.90;;;;;;5054263;28;20422;-62
2022/06/20 13:47:27;;;;;;;0.20;0.20;;;20.70;99.90;;;;;;5055785;28;20459;-63
2022/06/20 13:50:23;;;;;;;0.20;0.20;;;20.80;99.90;;;;;;5057646;28;20461;-62
2022/06/20 13:53:12;;;;;;;0.30;0.30;;;20.30;99.90;;;;;;5063722;28;20828;-63
2022/06/20 13:55:47;;;;;;;0.20;0.20;;;20.30;99.90;;;;;;5058196;28;20454;-64
2022/06/20 13:58:29;;;;;;;0.10;0.10;;;20.30;99.90;;;;;;5062562;28;20421;-64
2022/06/20 14:01:07;;;;;;;0.30;0.30;;;20.80;99.90;;;;;;5073449;28;20433;-66
2022/06/20 14:03:42;;;;;;;0.20;0.20;;;21.10;99.90;;;;;;5078979;28;20437;-61
2022/06/20 14:06:14;;;;;;;0.20;0.20;;;22.20;99.90;;;;;;5066560;28;20438;-63
2022/06/20 14:08:47;;;;;;;0.20;0.20;;;22.90;99.90;;;;;;5066235;28;20430;-62